Time;durP1;ratioP1;P1;durP2;ratioP2;P2;SDS_P1;SDS_P2;PMS_P1;PMS_P2;Temp;Humidity;BMP_temperature;BMP_pressure;BME280_temperature;BME280_humidity;BME280_pressure;Samples;Min_cycle;Max_cycle;Signal;HPM_P1;HPM_P2
2023/06/29 00:01:44;;;;;;;7.03;5.83;;;;;;;15.70;88.96;101100.94;4844373;29;20454;-83
2023/06/29 00:04:18;;;;;;;9.13;6.70;;;;;;;15.66;90.15;101106.03;4837705;29;20490;-81
2023/06/29 00:06:49;;;;;;;9.60;5.10;;;;;;;15.68;90.48;101105.81;4864786;29;20464;-82
2023/06/29 00:09:19;;;;;;;8.53;5.47;;;;;;;15.74;90.99;101099.41;4867402;29;20449;-82
2023/06/29 00:11:48;;;;;;;7.40;6.13;;;;;;;15.53;91.28;101092.59;4864126;29;20449;-82
2023/06/29 00:14:18;;;;;;;7.57;6.33;;;;;;;15.53;92.38;101100.78;4862815;29;20416;-82
2023/06/29 00:16:50;;;;;;;7.13;6.43;;;;;;;15.40;92.61;101106.34;4841752;29;20424;-82
2023/06/29 00:19:20;;;;;;;10.37;7.17;;;;;;;15.39;93.30;101101.97;4832896;29;20509;-82
2023/06/29 00:21:50;;;;;;;9.07;7.03;;;;;;;15.36;94.02;101097.78;4845945;23;20448;-79
2023/06/29 00:24:19;;;;;;;11.10;7.37;;;;;;;15.39;94.30;101102.81;4844154;29;20677;-77
2023/06/29 00:26:51;;;;;;;11.53;7.17;;;;;;;15.52;94.86;101099.09;4843924;29;20454;-79
2023/06/29 00:29:21;;;;;;;7.40;6.13;;;;;;;15.38;94.62;101097.56;4847242;29;20409;-78
2023/06/29 00:31:52;;;;;;;11.17;7.80;;;;;;;15.36;95.16;101094.22;4839665;29;20461;-79
2023/06/29 00:34:21;;;;;;;9.43;8.53;;;;;;;15.27;95.24;101101.91;4833630;29;20451;-79
2023/06/29 00:36:50;;;;;;;9.67;8.17;;;;;;;15.27;96.27;101095.59;4830208;29;20467;-79
2023/06/29 00:39:19;;;;;;;10.30;8.63;;;;;;;15.26;96.52;101093.94;4830598;29;20491;-79
2023/06/29 00:41:53;;;;;;;8.93;7.60;;;;;;;15.25;97.48;101095.03;4831620;29;20488;-80
2023/06/29 00:44:23;;;;;;;11.30;8.97;;;;;;;15.23;97.76;101090.63;4831989;29;20400;-78
2023/06/29 00:46:55;;;;;;;14.57;10.40;;;;;;;15.17;98.07;101096.97;4841695;29;20433;-80
2023/06/29 00:49:25;;;;;;;12.20;7.40;;;;;;;15.08;98.27;101087.44;4839622;29;20454;-79
2023/06/29 00:51:55;;;;;;;7.90;7.30;;;;;;;15.06;98.75;101092.28;4819912;29;20448;-81
2023/06/29 00:54:25;;;;;;;11.30;8.00;;;;;;;14.95;98.82;101087.59;4821670;29;20507;-78
2023/06/29 00:56:58;;;;;;;14.47;8.87;;;;;;;15.05;99.22;101082.44;4817948;29;20446;-77
2023/06/29 00:59:28;;;;;;;13.20;8.03;;;;;;;14.90;99.33;101073.81;4820076;29;20484;-80
2023/06/29 01:01:58;;;;;;;9.63;8.63;;;;;;;15.04;99.46;101075.31;4840828;29;20478;-78
2023/06/29 01:04:28;;;;;;;9.83;8.20;;;;;;;14.91;99.61;101075.44;4837629;29;20425;-77
2023/06/29 01:07:04;;;;;;;12.13;8.63;;;;;;;14.92;100.00;101077.13;4850269;29;20421;-78
2023/06/29 01:09:35;;;;;;;11.00;9.67;;;;;;;14.87;100.00;101073.41;4838667;29;20426;-78
2023/06/29 01:12:08;;;;;;;12.63;9.50;;;;;;;14.80;100.00;101070.78;4833626;29;20441;-78
2023/06/29 01:14:38;;;;;;;10.77;9.57;;;;;;;14.83;100.00;101067.59;4828348;29;20425;-80
2023/06/29 01:17:11;;;;;;;13.00;9.10;;;;;;;14.86;100.00;101067.16;4817247;29;20463;-80
2023/06/29 01:19:44;;;;;;;14.00;10.40;;;;;;;14.71;100.00;101070.25;4817006;29;20474;-79
2023/06/29 01:22:20;;;;;;;10.57;8.27;;;;;;;14.99;100.00;101067.00;4815762;29;20486;-78
2023/06/29 01:24:51;;;;;;;11.43;9.50;;;;;;;14.87;100.00;101062.50;4819349;29;20468;-79
2023/06/29 01:27:22;;;;;;;10.90;9.93;;;;;;;14.79;100.00;101067.22;4813268;29;20414;-79
2023/06/29 01:29:55;;;;;;;10.53;9.43;;;;;;;14.86;100.00;101061.72;4813214;29;20443;-80
2023/06/29 01:32:26;;;;;;;9.57;8.67;;;;;;;14.75;100.00;101048.81;4816262;29;20486;-79
2023/06/29 01:34:55;;;;;;;10.90;8.90;;;;;;;14.73;100.00;101056.38;4818398;29;20521;-78
2023/06/29 01:37:29;;;;;;;10.40;9.10;;;;;;;14.73;100.00;101059.94;4817373;29;20440;-79
2023/06/29 01:40:03;;;;;;;13.77;12.30;;;;;;;14.83;100.00;101051.25;4828354;29;20563;-79
2023/06/29 01:42:36;;;;;;;9.80;8.90;;;;;;;14.65;100.00;101053.97;4833726;29;20444;-79
2023/06/29 01:45:12;;;;;;;10.13;9.10;;;;;;;14.66;100.00;101055.63;4813290;29;20439;-82
2023/06/29 01:47:41;;;;;;;10.83;9.13;;;;;;;14.57;100.00;101054.25;4815199;29;20418;-80
2023/06/29 01:50:12;;;;;;;9.13;8.33;;;;;;;14.46;100.00;101050.38;4827514;29;20453;-78
2023/06/29 01:52:41;;;;;;;10.80;9.80;;;;;;;14.43;100.00;101047.25;4830396;29;20477;-78
2023/06/29 01:55:12;;;;;;;11.23;8.87;;;;;;;14.59;100.00;101043.94;4815163;29;20493;-79
2023/06/29 01:57:41;;;;;;;13.00;9.53;;;;;;;14.52;100.00;101054.09;4819645;29;20439;-79
2023/06/29 02:00:12;;;;;;;12.60;9.70;;;;;;;14.43;100.00;101047.25;4833358;29;20510;-78
2023/06/29 02:02:44;;;;;;;15.60;8.77;;;;;;;14.66;100.00;101039.28;4827564;29;20443;-77
2023/06/29 02:05:13;;;;;;;10.37;8.10;;;;;;;14.61;100.00;101041.84;4820290;29;20462;-79
2023/06/29 02:07:42;;;;;;;9.47;8.63;;;;;;;14.82;100.00;101044.13;4813681;29;20430;-78
2023/06/29 02:10:13;;;;;;;12.90;10.17;;;;;;;14.71;100.00;101042.16;4812269;29;20433;-78
2023/06/29 02:12:42;;;;;;;11.17;10.27;;;;;;;14.61;100.00;101042.69;4829152;29;20570;-77
2023/06/29 02:15:12;;;;;;;10.77;9.70;;;;;;;14.47;100.00;101040.31;4814102;29;20425;-79
2023/06/29 02:17:41;;;;;;;10.73;9.47;;;;;;;14.44;100.00;101047.03;4810367;29;20409;-80
2023/06/29 02:20:11;;;;;;;11.13;10.13;;;;;;;14.49;100.00;101049.06;4823399;29;20558;-79
2023/06/29 02:22:40;;;;;;;12.83;8.40;;;;;;;14.41;100.00;101046.66;4827287;29;20472;-79
2023/06/29 02:25:14;;;;;;;14.20;9.10;;;;;;;14.29;100.00;101041.88;4837490;29;20426;-78
2023/06/29 02:27:43;;;;;;;9.47;8.30;;;;;;;14.65;100.00;101048.50;4835447;29;20451;-78
2023/06/29 02:30:15;;;;;;;9.37;8.40;;;;;;;14.85;100.00;101040.97;4826037;29;20418;-79
2023/06/29 02:32:44;;;;;;;10.37;9.33;;;;;;;14.66;100.00;101047.47;4837779;29;21014;-78
2023/06/29 02:35:13;;;;;;;11.47;8.80;;;;;;;14.69;100.00;101047.00;4826093;29;20526;-78
2023/06/29 02:37:44;;;;;;;10.20;9.20;;;;;;;14.68;100.00;101042.59;4838145;29;20612;-78
2023/06/29 02:40:15;;;;;;;12.53;9.93;;;;;;;14.50;100.00;101040.69;4835807;29;20512;-79
2023/06/29 02:42:44;;;;;;;10.63;9.70;;;;;;;14.60;100.00;101045.63;4829465;29;20526;-79
2023/06/29 02:45:13;;;;;;;13.70;9.47;;;;;;;14.82;100.00;101043.28;4812347;29;20480;-79
2023/06/29 02:47:42;;;;;;;15.83;8.90;;;;;;;14.71;100.00;101053.91;4832542;29;20450;-78
2023/06/29 02:50:12;;;;;;;10.50;9.47;;;;;;;14.53;100.00;101045.69;4830624;29;20450;-78
2023/06/29 02:52:47;;;;;;;11.10;9.93;;;;;;;14.51;100.00;101052.41;4824436;29;20448;-79
2023/06/29 02:55:17;;;;;;;10.87;9.73;;;;;;;14.55;100.00;101056.34;4813492;29;20430;-79
2023/06/29 02:57:46;;;;;;;11.27;10.23;;;;;;;14.69;100.00;101050.56;4826160;29;20486;-77
2023/06/29 03:00:16;;;;;;;10.63;9.67;;;;;;;14.72;100.00;101058.25;4848837;29;20477;-78
2023/06/29 03:02:45;;;;;;;14.23;9.90;;;;;;;14.63;100.00;101056.06;4844312;29;20534;-79
2023/06/29 03:05:15;;;;;;;9.60;8.60;;;;;;;14.75;100.00;101055.09;4833172;29;20461;-79
2023/06/29 03:07:44;;;;;;;13.43;9.77;;;;;;;14.84;100.00;101055.63;4829286;29;20524;-79
2023/06/29 03:10:13;;;;;;;11.43;10.30;;;;;;;14.75;100.00;101059.72;4821799;29;20488;-79
2023/06/29 03:12:44;;;;;;;14.40;10.10;;;;;;;14.75;100.00;101054.28;4841647;29;20530;-78
2023/06/29 03:15:13;;;;;;;10.70;9.63;;;;;;;14.88;100.00;101056.00;4820511;29;20440;-79
2023/06/29 03:17:42;;;;;;;12.90;11.00;;;;;;;15.04;100.00;101056.25;4813921;29;20538;-78
2023/06/29 03:20:13;;;;;;;10.70;9.60;;;;;;;15.06;100.00;101062.28;4819076;29;20448;-80
2023/06/29 03:22:42;;;;;;;9.60;8.70;;;;;;;15.12;100.00;101061.38;4829457;29;20464;-80
2023/06/29 03:25:11;;;;;;;11.57;9.50;;;;;;;15.18;100.00;101065.94;4830808;29;20492;-79
2023/06/29 03:27:41;;;;;;;12.13;7.80;;;;;;;15.33;100.00;101067.44;4816512;29;20443;-80
2023/06/29 03:30:12;;;;;;;8.73;8.00;;;;;;;15.38;100.00;101062.13;4818332;29;20438;-78
2023/06/29 03:32:41;;;;;;;10.47;7.73;;;;;;;15.54;98.68;101067.00;4819928;29;20789;-78
2023/06/29 03:35:11;;;;;;;8.93;8.13;;;;;;;15.60;98.57;101068.78;4815537;29;20466;-78
2023/06/29 03:37:40;;;;;;;9.30;8.30;;;;;;;15.68;98.56;101068.47;4819474;29;20458;-78
2023/06/29 03:40:10;;;;;;;11.63;9.47;;;;;;;16.15;96.50;101066.69;4816857;29;20494;-79
2023/06/29 03:42:39;;;;;;;9.57;8.67;;;;;;;17.35;89.85;101073.31;4817161;29;20429;-79
2023/06/29 03:45:10;;;;;;;10.17;7.43;;;;;;;18.56;80.94;101069.25;4815027;29;20439;-77
2023/06/29 03:47:40;;;;;;;8.20;7.50;;;;;;;19.56;74.59;101068.16;4811545;29;20510;-79
2023/06/29 03:50:10;;;;;;;8.43;7.73;;;;;;;20.38;70.83;101071.44;4811657;29;20426;-78
2023/06/29 03:52:39;;;;;;;7.77;7.07;;;;;;;20.80;68.17;101071.50;4813619;29;20516;-79
2023/06/29 03:55:10;;;;;;;7.77;7.10;;;;;;;20.87;67.45;101067.66;4818504;29;20489;-78
2023/06/29 03:57:39;;;;;;;9.33;8.10;;;;;;;20.95;66.79;101073.50;4833088;29;20421;-80
2023/06/29 04:00:11;;;;;;;8.90;7.50;;;;;;;21.15;66.22;101073.66;4820924;29;20414;-79
2023/06/29 04:02:42;;;;;;;10.80;7.73;;;;;;;21.77;62.99;101078.28;4825650;29;20952;-80
2023/06/29 04:05:12;;;;;;;7.83;6.43;;;;;;;21.69;64.07;101079.63;4823957;29;20443;-79
2023/06/29 04:07:41;;;;;;;11.20;6.90;;;;;;;21.89;63.13;101081.59;4822338;29;20460;-78
2023/06/29 04:10:11;;;;;;;7.40;6.70;;;;;;;22.42;61.49;101082.22;4822975;29;20602;-78
2023/06/29 04:12:40;;;;;;;8.63;7.30;;;;;;;22.86;59.58;101075.03;4839801;29;20449;-79
2023/06/29 04:15:11;;;;;;;7.47;6.50;;;;;;;23.02;58.46;101086.03;4840329;29;20542;-78
2023/06/29 04:17:40;;;;;;;7.13;6.53;;;;;;;23.18;56.35;101084.88;4842469;29;20438;-78
2023/06/29 04:20:11;;;;;;;10.80;7.40;;;;;;;23.55;55.09;101076.19;4839570;29;20418;-80
2023/06/29 04:22:40;;;;;;;9.77;6.50;;;;;;;23.54;55.58;101075.38;4826747;29;20528;-79
2023/06/29 04:25:09;;;;;;;11.13;7.00;;;;;;;24.11;54.21;101073.88;4830386;29;20434;-77
2023/06/29 04:27:38;;;;;;;7.90;7.13;;;;;;;23.05;55.79;101071.66;4834723;29;20445;-78
2023/06/29 04:30:08;;;;;;;8.03;7.23;;;;;;;21.25;61.27;101070.91;4830086;29;20467;-78
2023/06/29 04:32:39;;;;;;;6.97;6.27;;;;;;;20.32;66.36;101078.03;4826558;29;20569;-79
2023/06/29 04:35:10;;;;;;;8.87;6.63;;;;;;;19.83;69.07;101071.75;4826505;29;20462;-79
2023/06/29 04:37:41;;;;;;;8.27;6.80;;;;;;;19.05;71.97;101075.72;4820793;29;20469;-79
2023/06/29 04:40:14;;;;;;;7.73;7.03;;;;;;;18.86;73.93;101068.06;4822262;29;20508;-79
2023/06/29 04:42:45;;;;;;;7.90;7.03;;;;;;;18.52;75.52;101065.31;4816821;29;20539;-79
2023/06/29 04:45:18;;;;;;;10.33;8.30;;;;;;;18.41;76.32;101066.25;4829601;29;20428;-80
2023/06/29 04:47:50;;;;;;;14.40;7.53;;;;;;;19.97;69.75;101063.91;4825332;29;20432;-78
2023/06/29 04:50:24;;;;;;;7.63;6.93;;;;;;;20.22;68.64;101064.16;4840014;29;20443;-79
2023/06/29 04:52:55;;;;;;;7.40;6.70;;;;;;;21.63;63.47;101068.88;4834999;29;20458;-79
2023/06/29 04:55:25;;;;;;;9.97;7.00;;;;;;;23.34;58.26;101062.44;4850647;29;20440;-79
2023/06/29 04:57:54;;;;;;;9.23;7.27;;;;;;;24.53;53.87;101068.63;4835375;29;20442;-79
2023/06/29 05:00:23;;;;;;;7.23;6.53;;;;;;;24.82;51.94;101065.00;4837616;29;20468;-78
2023/06/29 05:02:54;;;;;;;8.83;6.43;;;;;;;25.27;51.06;101064.50;4827641;29;20466;-80
2023/06/29 05:05:23;;;;;;;7.10;5.50;;;;;;;25.80;49.36;101067.16;4840067;29;20458;-77
2023/06/29 05:07:52;;;;;;;8.93;6.70;;;;;;;26.23;48.43;101067.91;4835048;29;20458;-78
2023/06/29 05:10:23;;;;;;;8.37;6.00;;;;;;;26.86;46.41;101071.00;4823820;29;20469;-79
2023/06/29 05:12:52;;;;;;;6.97;5.73;;;;;;;26.00;47.60;101072.38;4817358;29;20452;-78
2023/06/29 05:15:21;;;;;;;11.73;5.67;;;;;;;25.91;47.76;101075.00;4832292;29;20868;-80
2023/06/29 05:17:52;;;;;;;9.23;6.60;;;;;;;26.28;46.82;101074.22;4821467;29;20792;-79
2023/06/29 05:20:23;;;;;;;7.40;6.60;;;;;;;26.90;45.22;101072.00;4813746;29;20471;-79
2023/06/29 05:22:52;;;;;;;7.33;5.90;;;;;;;27.29;44.64;101071.50;4810241;29;20457;-80
2023/06/29 05:25:22;;;;;;;7.50;6.90;;;;;;;27.92;42.68;101074.31;4822613;29;20425;-79
2023/06/29 05:27:51;;;;;;;9.77;5.93;;;;;;;27.38;44.18;101068.81;4824860;29;20418;-79
2023/06/29 05:30:20;;;;;;;8.03;5.93;;;;;;;27.98;43.16;101070.25;4837377;29;20534;-81
2023/06/29 05:32:49;;;;;;;6.77;5.13;;;;;;;28.04;42.52;101077.34;4820308;29;20478;-79
2023/06/29 05:35:18;;;;;;;5.90;5.30;;;;;;;27.94;42.13;101071.19;4828717;29;20429;-79
2023/06/29 05:37:49;;;;;;;5.50;3.90;;;;;;;28.19;41.28;101072.59;4815683;29;20991;-80
2023/06/29 05:40:18;;;;;;;5.33;4.73;;;;;;;27.22;43.40;101071.91;4820789;29;20514;-79
2023/06/29 05:42:47;;;;;;;6.73;5.27;;;;;;;25.29;47.97;101067.81;4832799;29;20511;-81
2023/06/29 05:45:16;;;;;;;7.00;4.57;;;;;;;23.50;53.30;101062.41;4827483;29;20453;-78
2023/06/29 05:47:46;;;;;;;7.93;4.10;;;;;;;22.65;55.56;101067.88;4827870;29;20490;-79
2023/06/29 05:50:16;;;;;;;10.10;4.80;;;;;;;22.37;57.62;101063.75;4813047;29;20421;-79
2023/06/29 05:52:45;;;;;;;7.20;5.00;;;;;;;21.92;57.90;101059.03;4821826;29;20538;-79
2023/06/29 05:55:20;;;;;;;9.43;5.27;;;;;;;21.80;59.97;101055.69;4818488;29;20441;-79
2023/06/29 05:57:49;;;;;;;7.60;4.57;;;;;;;21.77;60.69;101059.00;4814012;29;20487;-77
2023/06/29 06:00:19;;;;;;;9.97;6.07;;;;;;;21.67;61.20;101057.03;4819359;29;20414;-79
2023/06/29 06:02:48;;;;;;;7.63;4.97;;;;;;;21.67;60.95;101067.22;4818194;29;20491;-80
2023/06/29 06:05:17;;;;;;;9.53;5.03;;;;;;;21.58;63.00;101069.69;4826625;29;20446;-79
2023/06/29 06:07:47;;;;;;;7.37;5.10;;;;;;;21.75;62.76;101072.19;4822622;29;20917;-78
2023/06/29 06:10:16;;;;;;;7.70;6.10;;;;;;;21.69;62.34;101065.84;4826360;29;20427;-78
2023/06/29 06:12:47;;;;;;;9.07;6.23;;;;;;;21.69;62.79;101060.34;4814871;29;20444;-79
2023/06/29 06:15:16;;;;;;;5.80;5.30;;;;;;;21.81;62.66;101068.38;4825209;29;20471;-79
2023/06/29 06:17:45;;;;;;;6.30;4.57;;;;;;;21.87;62.72;101069.19;4822662;29;20435;-79
2023/06/29 06:20:15;;;;;;;6.83;5.60;;;;;;;21.90;61.86;101061.22;4824938;29;20415;-78
2023/06/29 06:25:27;;;;;;;5.97;5.37;;;;;;;22.03;61.47;101066.22;4874201;23;20556;-79
2023/06/29 06:27:57;;;;;;;5.53;4.60;;;;;;;22.09;59.79;101067.88;4867347;29;20430;-79
2023/06/29 06:30:27;;;;;;;6.37;4.90;;;;;;;22.47;58.93;101060.97;4863270;29;20444;-80
2023/06/29 06:32:56;;;;;;;9.40;4.53;;;;;;;22.78;58.47;101059.06;4862032;29;20426;-80
2023/06/29 06:35:28;;;;;;;6.93;4.17;;;;;;;23.07;56.41;101061.19;4856069;29;20438;-81
2023/06/29 06:37:57;;;;;;;4.20;3.83;;;;;;;23.51;55.38;101053.84;4845168;29;20422;-81
2023/06/29 06:40:26;;;;;;;6.77;3.67;;;;;;;23.90;53.08;101050.28;4857533;29;20437;-79
2023/06/29 06:42:56;;;;;;;10.80;4.33;;;;;;;24.21;52.14;101051.72;4847257;29;20453;-79
2023/06/29 06:45:30;;;;;;;5.30;4.03;;;;;;;24.63;51.15;101051.91;4837395;29;20452;-77
2023/06/29 06:47:59;;;;;;;5.67;3.80;;;;;;;24.70;49.69;101048.78;4848203;29;20427;-79
2023/06/29 06:50:29;;;;;;;10.90;4.23;;;;;;;25.14;48.92;101054.16;4845349;29;20494;-77
2023/06/29 06:52:59;;;;;;;7.80;5.03;;;;;;;25.35;47.97;101054.72;4847896;29;20454;-78
2023/06/29 06:55:29;;;;;;;3.83;3.37;;;;;;;25.70;46.69;101062.59;4833855;29;20858;-79
2023/06/29 06:58:00;;;;;;;11.77;5.17;;;;;;;25.79;46.00;101057.19;4849956;29;20473;-80
2023/06/29 07:00:29;;;;;;;4.20;3.60;;;;;;;25.65;47.02;101059.06;4847965;29;20433;-81
2023/06/29 07:02:58;;;;;;;6.33;3.67;;;;;;;25.37;46.52;101061.59;4861815;29;20485;-80
2023/06/29 07:05:28;;;;;;;3.80;3.50;;;;;;;24.91;46.46;101055.81;4843231;29;20438;-80
2023/06/29 07:07:58;;;;;;;11.00;3.50;;;;;;;24.63;47.65;101051.91;4852534;29;20500;-80
2023/06/29 07:10:29;;;;;;;3.93;3.00;;;;;;;24.64;47.39;101056.31;4845938;29;20437;-81
2023/06/29 07:13:00;;;;;;;4.93;2.97;;;;;;;24.35;47.79;101052.72;4850554;29;20430;-80
2023/06/29 07:15:30;;;;;;;5.20;3.40;;;;;;;24.46;48.71;101054.28;4841797;29;20433;-80
2023/06/29 07:17:59;;;;;;;4.57;3.80;;;;;;;24.26;48.78;101059.97;4842516;29;20434;-80
2023/06/29 07:20:30;;;;;;;5.33;3.83;;;;;;;24.08;49.39;101053.19;4847381;29;20443;-80
2023/06/29 07:23:02;;;;;;;7.73;4.03;;;;;;;24.18;51.41;101046.78;4850945;29;20516;-80
2023/06/29 07:25:34;;;;;;;7.00;4.20;;;;;;;24.21;49.73;101051.72;4851521;29;20457;-80
2023/06/29 07:28:05;;;;;;;5.70;3.87;;;;;;;24.13;50.49;101053.16;4846231;29;20401;-80
2023/06/29 07:30:35;;;;;;;5.83;4.40;;;;;;;24.05;49.37;101044.66;4844066;29;20760;-80
2023/06/29 07:33:04;;;;;;;6.77;4.43;;;;;;;23.97;50.16;101037.78;4846998;29;20416;-79
2023/06/29 07:35:34;;;;;;;11.83;4.03;;;;;;;23.95;nan;101036.44;4839725;29;20473;-80
2023/06/29 07:38:03;;;;;;;5.90;3.77;;;;;;;23.68;51.01;101043.22;4845070;29;20464;-80
2023/06/29 07:40:33;;;;;;;7.87;5.00;;;;;;;23.97;52.23;101039.72;4845637;29;20419;-80
2023/06/29 07:43:07;;;;;;;7.43;4.10;;;;;;;23.98;50.54;101038.63;4840687;29;20437;-81
2023/06/29 07:45:37;;;;;;;10.53;6.07;;;;;;;24.12;50.83;101043.19;4843954;29;20449;-81
2023/06/29 07:48:06;;;;;;;6.43;4.93;;;;;;;24.26;50.87;101048.94;4835005;29;20442;-81
2023/06/29 07:50:36;;;;;;;6.17;5.20;;;;;;;24.25;49.79;101048.09;4843387;29;20735;-81
2023/06/29 07:53:06;;;;;;;11.43;5.00;;;;;;;24.27;50.17;101042.28;4840195;29;20430;-80
2023/06/29 07:55:35;;;;;;;4.13;3.40;;;;;;;23.94;50.86;101035.59;4847831;29;20408;-80
2023/06/29 07:58:06;;;;;;;5.63;4.40;;;;;;;24.17;51.04;101047.91;4859955;29;20487;-80
2023/06/29 08:00:39;;;;;;;6.10;5.10;;;;;;;24.34;50.06;101051.09;4858405;29;20463;-81
2023/06/29 08:03:09;;;;;;;5.37;3.70;;;;;;;24.43;50.04;101043.81;4840401;29;20723;-80
2023/06/29 08:05:39;;;;;;;8.50;4.43;;;;;;;24.28;49.56;101043.09;4842838;29;20435;-80
2023/06/29 08:08:12;;;;;;;9.63;4.80;;;;;;;24.05;50.09;101036.38;4865420;29;20456;-80
2023/06/29 08:10:42;;;;;;;5.17;4.67;;;;;;;24.10;51.05;101041.84;4834484;29;20467;-79
2023/06/29 08:13:13;;;;;;;5.30;4.03;;;;;;;24.06;49.11;101040.78;4851990;29;20453;-79
2023/06/29 08:15:42;;;;;;;8.67;3.80;;;;;;;24.23;50.28;101036.50;4851163;29;20448;-81
2023/06/29 08:18:14;;;;;;;7.83;4.90;;;;;;;24.46;50.10;101043.22;4840303;29;20433;-77
2023/06/29 08:20:46;;;;;;;6.53;4.63;;;;;;;24.55;48.74;101041.47;4835462;29;20476;-79
2023/06/29 08:23:16;;;;;;;4.50;3.77;;;;;;;24.60;49.51;101035.88;4838498;29;20488;-79
2023/06/29 08:25:45;;;;;;;4.70;3.50;;;;;;;24.74;48.95;101037.97;4867390;29;20494;-80
2023/06/29 08:28:16;;;;;;;4.37;3.60;;;;;;;24.61;48.17;101040.31;4844236;29;20470;-80
2023/06/29 08:30:45;;;;;;;6.40;4.27;;;;;;;24.57;49.07;101036.47;4857658;29;20468;-80
2023/06/29 08:33:14;;;;;;;5.27;3.93;;;;;;;24.72;49.77;101034.66;4847837;29;20435;-80
2023/06/29 08:35:44;;;;;;;4.77;3.50;;;;;;;24.83;48.02;101033.44;4844200;29;20483;-81
2023/06/29 08:38:14;;;;;;;4.57;3.57;;;;;;;24.33;48.52;101038.38;4839904;29;20475;-80
2023/06/29 08:40:47;;;;;;;8.77;4.17;;;;;;;24.61;49.09;101033.94;4830534;29;20454;-80
2023/06/29 08:43:18;;;;;;;4.43;3.30;;;;;;;24.65;49.29;101035.84;4838827;29;20974;-82
2023/06/29 08:45:48;;;;;;;5.27;3.30;;;;;;;24.84;49.07;101037.84;4835756;29;20458;-80
2023/06/29 08:48:19;;;;;;;7.50;5.00;;;;;;;24.53;48.59;101035.41;4847934;29;20444;-81
2023/06/29 08:50:54;;;;;;;5.23;3.43;;;;;;;24.54;49.73;101037.06;4842510;29;20529;-80
2023/06/29 08:53:24;;;;;;;4.73;3.33;;;;;;;24.80;50.06;101040.38;4847584;29;21144;-81
2023/06/29 08:55:53;;;;;;;4.93;4.00;;;;;;;24.73;48.94;101041.84;4838924;29;20835;-81
2023/06/29 08:58:24;;;;;;;5.87;5.07;;;;;;;24.95;48.69;101034.72;4841836;29;20445;-80
2023/06/29 09:00:56;;;;;;;6.43;4.03;;;;;;;25.18;48.45;101027.50;4838897;29;20437;-80
2023/06/29 09:03:28;;;;;;;9.50;5.23;;;;;;;25.27;48.43;101033.22;4847708;29;20485;-81
2023/06/29 09:05:59;;;;;;;7.63;4.57;;;;;;;25.36;46.16;101032.28;4850940;29;20412;-82
2023/06/29 09:08:29;;;;;;;5.20;3.77;;;;;;;25.48;46.41;101031.81;4850902;29;20449;-80
2023/06/29 09:10:59;;;;;;;6.60;3.80;;;;;;;25.59;46.00;101032.53;4850652;29;20452;-81
2023/06/29 09:13:33;;;;;;;6.90;4.50;;;;;;;25.47;47.51;101030.16;4850364;29;20457;-81
2023/06/29 09:16:03;;;;;;;5.67;3.20;;;;;;;25.69;47.24;101027.69;4845125;29;20445;-81
2023/06/29 09:18:33;;;;;;;6.93;3.80;;;;;;;25.89;46.61;101032.09;4844495;29;20505;-80
2023/06/29 09:21:04;;;;;;;6.73;4.20;;;;;;;25.76;46.40;101030.06;4846202;29;20446;-81
2023/06/29 09:23:34;;;;;;;3.90;3.50;;;;;;;25.69;46.64;101036.00;4853925;29;20556;-80
2023/06/29 09:26:05;;;;;;;7.43;6.03;;;;;;;25.83;46.56;101027.75;4845882;29;20431;-81
2023/06/29 09:28:37;;;;;;;5.23;4.20;;;;;;;25.52;46.24;101028.16;4852993;29;20445;-81
2023/06/29 09:31:09;;;;;;;5.37;4.57;;;;;;;25.65;46.57;101025.81;4852889;29;20446;-81
2023/06/29 09:33:38;;;;;;;4.67;4.00;;;;;;;25.81;47.41;101027.22;4848746;29;20457;-80
2023/06/29 09:36:08;;;;;;;4.73;3.80;;;;;;;25.59;47.66;101027.00;4867557;29;20699;-82
2023/06/29 09:38:37;;;;;;;9.57;3.83;;;;;;;26.21;46.92;101029.38;4849162;29;20453;-81
2023/06/29 09:41:07;;;;;;;4.57;2.80;;;;;;;26.27;45.15;101022.63;4849362;29;20513;-80
2023/06/29 09:43:40;;;;;;;5.73;3.40;;;;;;;26.06;45.19;101023.22;4852257;29;20505;-79
2023/06/29 09:46:10;;;;;;;4.70;3.27;;;;;;;25.62;44.74;101020.84;4846286;29;20421;-81
2023/06/29 09:48:46;;;;;;;4.50;3.33;;;;;;;25.93;44.30;101022.03;4846304;29;20438;-80
2023/06/29 09:51:21;;;;;;;4.43;2.87;;;;;;;25.99;44.15;101020.84;4844104;29;20429;-80
2023/06/29 09:53:51;;;;;;;4.83;2.47;;;;;;;25.78;45.07;101008.41;4839118;29;20466;-80
2023/06/29 09:56:22;;;;;;;3.60;2.50;;;;;;;25.55;45.68;101021.25;4846002;29;20561;-81
2023/06/29 09:58:53;;;;;;;3.30;3.10;;;;;;;25.83;46.65;101022.19;4844016;29;20466;-81
2023/06/29 10:01:22;;;;;;;3.47;3.17;;;;;;;25.66;45.31;101016.38;4855049;29;20466;-81
2023/06/29 10:03:51;;;;;;;6.93;3.43;;;;;;;24.96;46.85;101007.84;4839341;29;20481;-80
2023/06/29 10:06:25;;;;;;;3.83;3.40;;;;;;;25.12;47.99;101005.72;4836609;29;20478;-81
2023/06/29 10:08:58;;;;;;;4.83;3.20;;;;;;;25.61;47.65;101013.69;4854912;29;20551;-82
2023/06/29 10:11:32;;;;;;;3.60;3.30;;;;;;;25.70;47.18;101014.66;4838574;29;20438;-82
2023/06/29 10:14:05;;;;;;;4.60;3.63;;;;;;;26.26;45.60;101004.31;4850170;29;20458;-82
2023/06/29 10:16:39;;;;;;;5.43;3.77;;;;;;;26.13;45.07;101001.47;4849465;29;20554;-81
2023/06/29 10:19:15;;;;;;;6.93;3.70;;;;;;;25.98;45.48;101004.50;4855867;29;20490;-81
2023/06/29 10:21:45;;;;;;;6.27;3.30;;;;;;;26.01;46.91;100999.16;4841792;29;20579;-80
2023/06/29 10:24:18;;;;;;;4.90;4.33;;;;;;;25.97;46.32;101000.91;4844439;29;20500;-81
2023/06/29 10:26:48;;;;;;;4.27;3.30;;;;;;;25.81;45.65;100996.72;4840997;29;20435;-82
2023/06/29 10:29:19;;;;;;;7.83;3.07;;;;;;;25.74;45.55;100996.28;4844824;29;20441;-81
2023/06/29 10:31:49;;;;;;;3.93;3.53;;;;;;;26.04;46.32;100987.50;4838930;29;20437;-81
2023/06/29 10:34:19;;;;;;;6.60;3.43;;;;;;;26.67;44.17;100986.94;4841951;29;20641;-81
2023/06/29 10:36:50;;;;;;;4.20;3.90;;;;;;;26.76;44.27;100988.69;4841145;29;20400;-81
2023/06/29 10:39:43;;;;;;;7.00;3.20;;;;;;;26.48;43.97;100986.97;4854043;29;20932;-82
2023/06/29 10:42:50;;;;;;;5.73;3.53;;;;;;;26.00;45.32;100983.66;4846870;29;20485;-81
2023/06/29 10:45:33;;;;;;;3.57;3.10;;;;;;;26.86;43.36;100979.34;4838592;29;20481;-83
2023/06/29 10:48:17;;;;;;;6.70;3.80;;;;;;;26.86;43.54;100973.81;4843663;29;20437;-81
2023/06/29 10:51:09;;;;;;;5.77;5.17;;;;;;;27.16;43.00;100972.31;4835744;29;20433;-81
2023/06/29 10:53:41;;;;;;;6.40;4.10;;;;;;;27.56;42.52;100970.59;4843465;29;20464;-82
2023/06/29 10:56:30;;;;;;;5.90;4.57;;;;;;;27.47;41.69;100969.69;4843546;29;20441;-81
2023/06/29 10:59:00;;;;;;;4.87;3.70;;;;;;;26.93;42.31;100968.63;4839420;29;20437;-81
2023/06/29 11:01:31;;;;;;;4.10;3.70;;;;;;;26.75;43.12;100966.78;4839948;29;20461;-81
2023/06/29 11:04:00;;;;;;;7.00;4.90;;;;;;;27.47;43.48;100961.34;4834576;29;20478;-81
2023/06/29 11:06:37;;;;;;;6.07;4.13;;;;;;;27.58;42.89;100965.56;4847866;29;20441;-82
2023/06/29 11:09:12;;;;;;;7.53;4.27;;;;;;;27.95;41.38;100962.41;4858552;29;20442;-81
2023/06/29 11:11:43;;;;;;;4.10;3.63;;;;;;;27.97;41.12;100964.91;4836723;29;20439;-79
2023/06/29 11:14:12;;;;;;;7.77;4.33;;;;;;;28.01;41.12;100954.78;4846357;29;20458;-80
2023/06/29 11:16:43;;;;;;;4.00;3.60;;;;;;;28.10;40.72;100953.69;4849077;29;20838;-81
2023/06/29 11:19:13;;;;;;;5.60;3.90;;;;;;;27.82;40.68;100946.63;4842362;29;20426;-81
2023/06/29 11:21:43;;;;;;;4.33;3.90;;;;;;;27.21;41.13;100947.19;4844599;29;20522;-81
2023/06/29 11:24:13;;;;;;;7.20;3.47;;;;;;;27.49;41.93;100956.34;4856802;29;20493;-81
2023/06/29 11:26:43;;;;;;;5.87;4.70;;;;;;;27.57;42.30;100941.69;4837695;29;20447;-81
2023/06/29 11:29:13;;;;;;;6.03;4.27;;;;;;;27.53;41.83;100944.28;4858574;29;20442;-81
2023/06/29 11:31:44;;;;;;;6.67;4.40;;;;;;;27.40;42.73;100939.53;4844066;29;20448;-81
2023/06/29 11:34:14;;;;;;;6.73;5.47;;;;;;;27.94;41.76;100941.28;4852143;29;20537;-82
2023/06/29 11:36:44;;;;;;;7.57;5.03;;;;;;;28.24;41.13;100942.50;4843642;29;20451;-82
2023/06/29 11:39:33;;;;;;;6.10;5.50;;;;;;;28.84;41.65;100940.00;4850439;29;20443;-83
2023/06/29 11:42:08;;;;;;;8.10;4.80;;;;;;;28.09;40.33;100935.34;4854301;29;20446;-81